Terminal Aerodrome Forecast
Issued by NWS

Home | Current Version | Previous Version | Text Only | Print | Product List | Glossary On
Versions: 1 2 3 4 5 6 7 8 9 10 11 12 13 14 15 16 17 18 19 20 21 22 23 24 25 26
000
FTUS44 KOUN 252328
TAFCSM
TAF
KCSM 252328Z 2600/2624 19018G25KT P6SM BKN250
     FM260300 18015KT P6SM BKN200
     FM261000 17009KT P6SM BKN180
     FM261800 35010KT P6SM BKN120=

USA.gov is the U.S. government's official web portal to all federal, state and local government web resources and services.